createdAt,value
2024-02-03T00:01:45.902Z,82.72
2024-02-03T00:04:14.501Z,79.30
2024-02-03T00:06:42.882Z,89.32
2024-02-03T00:09:10.704Z,71.18
2024-02-03T00:11:39.085Z,69.43
2024-02-03T00:16:34.471Z,59.28
2024-02-03T00:19:02.548Z,68.85
2024-02-03T00:21:30.979Z,73.75
2024-02-03T00:23:58.858Z,78.18
2024-02-03T00:26:26.592Z,69.25
2024-02-03T00:28:55.770Z,70.10
2024-02-03T00:31:23.216Z,68.63
2024-02-03T00:33:51.518Z,84.07
2024-02-03T00:38:54.265Z,66.65
2024-02-03T00:43:49.874Z,61.67
2024-02-03T00:46:18.483Z,64.95
2024-02-03T00:48:46.322Z,75.68
2024-02-03T00:51:14.050Z,73.80
2024-02-03T00:53:43.026Z,63.47
2024-02-03T00:56:12.315Z,64.22
2024-02-03T00:58:41.273Z,70.43
2024-02-03T01:01:09.506Z,68.38
2024-02-03T01:03:37.459Z,67.43
2024-02-03T01:06:05.831Z,63.47
2024-02-03T01:11:00.951Z,63.55
2024-02-03T01:13:28.688Z,56.22
2024-02-03T01:15:56.940Z,85.60
2024-02-03T01:18:24.924Z,69.63
2024-02-03T01:20:53.492Z,73.30
2024-02-03T01:23:21.411Z,79.28
2024-02-03T01:25:50.894Z,69.22
2024-02-03T01:28:18.473Z,68.07
2024-02-03T01:30:46.128Z,66.50
2024-02-03T01:33:13.992Z,72.03
2024-02-03T01:35:41.700Z,68.22
2024-02-03T01:38:09.251Z,62.95
2024-02-03T01:40:39.100Z,65.70
2024-02-03T01:43:09.479Z,65.70
2024-02-03T01:45:37.390Z,69.65
2024-02-03T01:48:05.923Z,61.83
2024-02-03T01:50:34.323Z,76.57
2024-02-03T01:53:04.675Z,65.88
2024-02-03T01:55:33.299Z,61.75
2024-02-03T01:58:02.631Z,64.85
2024-02-03T02:00:32.232Z,64.50
2024-02-03T02:03:00.161Z,84.43
2024-02-03T02:05:30.041Z,79.18
2024-02-03T02:07:58.036Z,70.95
2024-02-03T02:10:26.031Z,72.45
2024-02-03T02:12:54.177Z,73.72
2024-02-03T02:15:22.018Z,72.82
2024-02-03T02:17:50.682Z,61.38
2024-02-03T02:20:18.652Z,59.22
2024-02-03T02:22:46.323Z,61.22
2024-02-03T02:25:14.147Z,69.78
2024-02-03T02:27:42.025Z,60.53
2024-02-03T02:30:10.017Z,79.43
2024-02-03T02:32:38.068Z,71.57
2024-02-03T02:35:06.133Z,66.13
2024-02-03T02:37:34.763Z,74.75
2024-02-03T02:40:02.801Z,69.30
2024-02-03T02:44:58.523Z,54.88
2024-02-03T02:47:26.206Z,62.92
2024-02-03T02:49:54.068Z,51.33
2024-02-03T02:52:21.833Z,57.47
2024-02-03T02:54:49.584Z,65.47
2024-02-03T02:57:17.081Z,65.20
2024-02-03T02:59:44.667Z,53.17
2024-02-03T03:02:12.593Z,57.90
2024-02-03T03:04:40.091Z,65.65
2024-02-03T03:07:07.797Z,75.88
2024-02-03T03:09:36.160Z,56.20
2024-02-03T03:12:04.206Z,57.13
2024-02-03T03:14:32.302Z,75.15
2024-02-03T03:17:00.609Z,64.45
2024-02-03T03:19:28.182Z,50.60
2024-02-03T03:21:56.055Z,50.10
2024-02-03T03:24:23.726Z,57.70
2024-02-03T03:26:51.554Z,51.80
2024-02-03T03:29:19.131Z,48.00
2024-02-03T03:31:46.743Z,51.97
2024-02-03T03:34:14.499Z,68.60
2024-02-03T03:36:42.263Z,59.53
2024-02-03T03:39:10.568Z,62.88
2024-02-03T03:41:38.115Z,63.28
2024-02-03T03:44:05.841Z,63.35
2024-02-03T03:46:33.623Z,62.55
2024-02-03T03:49:01.557Z,57.33
2024-02-03T03:51:29.414Z,56.25
2024-02-03T03:53:57.638Z,62.28
2024-02-03T03:56:25.121Z,83.13
2024-02-03T03:58:52.839Z,60.25
2024-02-03T04:01:20.386Z,62.60
2024-02-03T04:03:48.269Z,68.85
2024-02-03T04:06:16.109Z,62.95
2024-02-03T04:08:43.856Z,62.72
2024-02-03T04:11:11.490Z,82.80
2024-02-03T04:13:41.386Z,72.97
2024-02-03T04:16:09.499Z,67.85
2024-02-03T04:18:37.562Z,68.63
2024-02-03T04:21:05.725Z,56.95
2024-02-03T04:23:33.463Z,59.03
2024-02-03T04:26:01.262Z,76.63
2024-02-03T04:28:29.144Z,68.57
2024-02-03T04:31:00.015Z,70.53
2024-02-03T04:33:27.807Z,56.35
2024-02-03T04:35:55.612Z,64.38
2024-02-03T04:38:23.549Z,68.78
2024-02-03T04:40:51.195Z,73.07
2024-02-03T04:43:19.311Z,66.90
2024-02-03T04:45:46.878Z,62.60
2024-02-03T04:48:14.678Z,61.75
2024-02-03T04:50:42.702Z,79.22
2024-02-03T04:53:10.675Z,68.18
2024-02-03T04:55:38.040Z,57.58
2024-02-03T04:58:05.697Z,62.67
2024-02-03T05:00:33.352Z,62.45
2024-02-03T05:03:01.146Z,87.47
2024-02-03T05:05:29.269Z,76.10
2024-02-03T05:07:56.919Z,63.80
2024-02-03T05:10:24.669Z,68.45
2024-02-03T05:12:52.390Z,53.92
2024-02-03T05:15:20.253Z,50.22
2024-02-03T05:17:48.071Z,70.55
2024-02-03T05:20:16.244Z,68.90
2024-02-03T05:22:44.075Z,64.05
2024-02-03T05:25:12.668Z,67.55
2024-02-03T05:27:40.536Z,68.28
2024-02-03T05:30:09.015Z,72.45
2024-02-03T05:32:36.518Z,67.72
2024-02-03T05:35:04.418Z,86.15
2024-02-03T05:37:32.402Z,69.07
2024-02-03T05:42:31.491Z,68.95
2024-02-03T05:45:00.069Z,72.43
2024-02-03T05:47:27.969Z,70.85
2024-02-03T05:49:55.554Z,81.32
2024-02-03T05:52:23.340Z,74.53
2024-02-03T05:54:51.607Z,66.05
2024-02-03T05:57:19.466Z,82.93
2024-02-03T05:59:51.267Z,69.15
2024-02-03T06:02:19.891Z,72.97
2024-02-03T06:04:48.351Z,76.82
2024-02-03T06:09:46.273Z,92.90
2024-02-03T06:12:13.927Z,98.45
2024-02-03T06:14:42.549Z,91.10
2024-02-03T06:17:10.147Z,85.38
2024-02-03T06:19:42.372Z,100.65
2024-02-03T06:22:12.489Z,92.32
2024-02-03T06:24:40.445Z,116.60
2024-02-03T06:27:10.363Z,92.85
2024-02-03T06:29:38.084Z,84.65
2024-02-03T06:32:05.928Z,83.72
2024-02-03T06:34:33.842Z,91.78
2024-02-03T06:37:02.080Z,95.85
2024-02-03T06:41:58.570Z,97.05
2024-02-03T06:44:26.484Z,99.40
2024-02-03T06:46:54.583Z,118.65
2024-02-03T06:49:22.371Z,105.32
2024-02-03T06:51:50.352Z,124.28
2024-02-03T06:54:18.012Z,135.32
2024-02-03T06:56:45.697Z,110.25
2024-02-03T06:59:14.364Z,120.63
2024-02-03T07:01:41.934Z,106.13
2024-02-03T07:04:09.798Z,117.40
2024-02-03T07:06:37.500Z,121.50
2024-02-03T07:09:05.096Z,109.10
2024-02-03T07:11:33.017Z,140.57
2024-02-03T07:14:00.727Z,104.18
2024-02-03T07:16:28.965Z,114.50
2024-02-03T07:21:25.412Z,96.25
2024-02-03T07:26:20.522Z,82.72
2024-02-03T07:28:49.932Z,92.95
2024-02-03T07:31:28.691Z,99.10
2024-02-03T07:33:59.425Z,95.25
2024-02-03T07:36:27.255Z,98.38
2024-02-03T07:38:55.673Z,116.93
2024-02-03T07:43:50.618Z,108.25
2024-02-03T07:46:18.310Z,128.82
2024-02-03T07:48:46.649Z,122.78
2024-02-03T07:51:14.678Z,110.07
2024-02-03T07:53:43.451Z,119.93
2024-02-03T07:56:12.134Z,105.35
2024-02-03T07:58:40.110Z,105.25
2024-02-03T08:01:08.042Z,100.45
2024-02-03T08:03:36.013Z,103.88
2024-02-03T08:06:04.732Z,89.18
2024-02-03T08:08:33.336Z,100.05
2024-02-03T08:11:01.196Z,91.30
2024-02-03T08:13:29.188Z,79.35
2024-02-03T08:15:57.725Z,87.68
2024-02-03T08:18:25.414Z,90.68
2024-02-03T08:20:52.944Z,90.75
2024-02-03T08:23:20.626Z,77.38
2024-02-03T08:25:48.079Z,64.95
2024-02-03T08:28:15.952Z,74.13
2024-02-03T08:30:43.936Z,69.43
2024-02-03T08:33:14.200Z,70.20
2024-02-03T08:35:42.460Z,59.88
2024-02-03T08:38:10.665Z,58.80
2024-02-03T08:40:38.575Z,76.18
2024-02-03T08:43:06.731Z,63.00
2024-02-03T08:45:34.149Z,55.58
2024-02-03T08:48:02.188Z,58.28
2024-02-03T08:50:30.309Z,54.70
2024-02-03T08:52:58.701Z,55.10
2024-02-03T08:57:53.793Z,81.43
2024-02-03T09:00:22.261Z,81.32
2024-02-03T09:02:49.853Z,75.90
2024-02-03T09:05:17.940Z,229.77
2024-02-03T09:07:46.633Z,85.25
2024-02-03T09:10:14.386Z,86.95
2024-02-03T09:12:42.284Z,70.15
2024-02-03T09:15:10.653Z,68.88
2024-02-03T09:17:38.574Z,77.63
2024-02-03T09:20:07.627Z,63.40
2024-02-03T09:22:35.743Z,64.28
2024-02-03T09:25:03.207Z,74.53
2024-02-03T09:27:30.894Z,74.13
2024-02-03T09:29:58.526Z,65.05
2024-02-03T09:32:30.640Z,65.57
2024-02-03T09:34:58.834Z,60.65
2024-02-03T09:39:58.519Z,62.78
2024-02-03T09:42:25.953Z,55.25
2024-02-03T09:44:54.210Z,58.38
2024-02-03T09:49:50.155Z,57.80
2024-02-03T09:52:19.430Z,60.88
2024-02-03T09:54:47.948Z,65.32
2024-02-03T09:57:16.112Z,52.63
2024-02-03T10:02:11.454Z,58.38
2024-02-03T10:04:40.905Z,57.20
2024-02-03T10:07:08.894Z,60.05
2024-02-03T10:12:18.908Z,52.28
2024-02-03T10:14:47.855Z,53.58
2024-02-03T10:17:22.813Z,56.42
2024-02-03T10:19:50.782Z,65.55
2024-02-03T10:22:18.810Z,55.85
2024-02-03T10:24:46.536Z,60.10
2024-02-03T10:27:14.144Z,66.40
2024-02-03T10:29:41.604Z,57.38
2024-02-03T10:32:10.030Z,60.88
2024-02-03T10:34:38.719Z,59.88
2024-02-03T10:37:06.592Z,55.60
2024-02-03T10:39:34.300Z,62.35
2024-02-03T10:42:03.072Z,51.33
2024-02-03T10:44:33.218Z,58.45
2024-02-03T10:47:03.328Z,55.63
2024-02-03T10:49:35.302Z,56.13
2024-02-03T10:52:10.372Z,57.55
2024-02-03T10:54:39.825Z,54.05
2024-02-03T10:57:12.165Z,61.47
2024-02-03T10:59:40.285Z,50.13
2024-02-03T11:02:25.754Z,46.95
2024-02-03T11:04:54.022Z,50.75
2024-02-03T11:07:32.259Z,50.00
2024-02-03T11:10:05.137Z,45.40
2024-02-03T11:12:36.876Z,49.88
2024-02-03T11:15:13.953Z,46.70
2024-02-03T11:17:45.863Z,47.10
2024-02-03T11:20:20.963Z,52.95
2024-02-03T11:22:56.196Z,50.25
2024-02-03T11:25:25.656Z,54.35
2024-02-03T11:27:53.493Z,57.17
2024-02-03T11:30:21.679Z,52.03
2024-02-03T11:32:49.638Z,49.42
2024-02-03T11:35:19.011Z,48.63
2024-02-03T11:37:47.418Z,52.47
2024-02-03T11:40:15.594Z,44.47
2024-02-03T11:45:16.380Z,46.22
2024-02-03T11:47:44.642Z,74.72
2024-02-03T11:52:46.802Z,50.30
2024-02-03T11:55:14.727Z,56.13
2024-02-03T11:57:44.002Z,44.35
2024-02-03T12:00:14.895Z,50.92
2024-02-03T12:02:43.141Z,57.80
2024-02-03T12:05:14.375Z,58.88
2024-02-03T12:07:43.133Z,60.42
2024-02-03T12:10:11.229Z,56.58
2024-02-03T12:12:41.108Z,62.97
2024-02-03T12:15:10.540Z,59.55
2024-02-03T12:17:39.922Z,58.78
2024-02-03T12:20:28.112Z,56.28
2024-02-03T12:22:58.914Z,50.55
2024-02-03T12:25:27.476Z,54.08
2024-02-03T12:27:55.885Z,56.33
2024-02-03T12:30:24.089Z,55.45
2024-02-03T12:32:51.722Z,55.92
2024-02-03T12:35:19.538Z,54.13
2024-02-03T12:37:47.451Z,53.88
2024-02-03T12:40:15.165Z,60.47
2024-02-03T12:42:43.217Z,57.25
2024-02-03T12:45:11.174Z,58.38
2024-02-03T12:47:43.154Z,53.30
2024-02-03T12:50:11.785Z,61.65
2024-02-03T12:52:39.427Z,51.53
2024-02-03T12:55:08.816Z,51.35
2024-02-03T12:57:36.551Z,60.08
2024-02-03T13:00:04.181Z,57.38
2024-02-03T13:02:32.242Z,59.70
2024-02-03T13:05:00.401Z,63.28
2024-02-03T13:07:28.226Z,55.15
2024-02-03T13:09:55.923Z,61.00
2024-02-03T13:12:24.986Z,54.75
2024-02-03T13:14:52.641Z,61.97
2024-02-03T13:17:21.217Z,55.40
2024-02-03T13:19:49.063Z,62.33
2024-02-03T13:22:17.003Z,65.47
2024-02-03T13:24:44.922Z,57.75
2024-02-03T13:27:13.763Z,60.55
2024-02-03T13:29:41.486Z,68.38
2024-02-03T13:32:09.664Z,52.65
2024-02-03T13:34:37.480Z,71.72
2024-02-03T13:37:05.659Z,57.42
2024-02-03T13:39:35.502Z,67.50
2024-02-03T13:42:05.263Z,57.33
2024-02-03T13:44:32.613Z,60.08
2024-02-03T13:47:00.403Z,70.22
2024-02-03T13:49:28.458Z,59.63
2024-02-03T13:51:56.327Z,58.15
2024-02-03T13:54:23.720Z,57.40
2024-02-03T13:56:51.446Z,48.42
2024-02-03T13:59:19.381Z,56.97
2024-02-03T14:01:47.038Z,61.38
2024-02-03T14:04:14.702Z,63.72
2024-02-03T14:06:43.865Z,66.00
2024-02-03T14:09:12.040Z,60.45
2024-02-03T14:14:23.663Z,66.90
2024-02-03T14:16:51.603Z,61.35
2024-02-03T14:19:20.083Z,58.15
2024-02-03T14:21:48.156Z,61.22
2024-02-03T14:24:15.872Z,65.30
2024-02-03T14:26:44.243Z,82.65
2024-02-03T14:31:39.200Z,66.25
2024-02-03T14:34:06.643Z,59.17
2024-02-03T14:36:34.868Z,54.63
2024-02-03T14:39:02.382Z,58.35
2024-02-03T14:41:29.911Z,71.85
2024-02-03T14:43:57.431Z,60.80
2024-02-03T14:46:25.568Z,58.65
2024-02-03T14:48:53.729Z,61.03
2024-02-03T14:51:21.631Z,61.90
2024-02-03T14:53:49.441Z,67.57
2024-02-03T14:56:17.332Z,60.47
2024-02-03T14:58:44.991Z,66.75
2024-02-03T15:01:12.712Z,65.20
2024-02-03T15:03:40.778Z,99.10
2024-02-03T15:06:08.496Z,70.65
2024-02-03T15:08:36.470Z,82.28
2024-02-03T15:11:04.634Z,82.43
2024-02-03T15:15:59.986Z,79.75
2024-02-03T15:18:28.066Z,69.80
2024-02-03T15:20:56.840Z,78.95
2024-02-03T15:23:24.411Z,88.55
2024-02-03T15:25:52.352Z,95.38
2024-02-03T15:28:20.467Z,79.43
2024-02-03T15:30:48.741Z,86.22
2024-02-03T15:33:19.583Z,90.25
2024-02-03T15:35:47.804Z,86.97
2024-02-03T15:38:15.877Z,85.32
2024-02-03T15:40:43.433Z,95.13
2024-02-03T15:43:11.373Z,89.40
2024-02-03T15:45:39.372Z,89.10
2024-02-03T15:48:07.391Z,98.45
2024-02-03T15:50:35.408Z,109.57
2024-02-03T15:53:04.218Z,88.30
2024-02-03T15:55:31.921Z,90.90
2024-02-03T15:58:01.419Z,91.38
2024-02-03T16:00:29.427Z,80.25
2024-02-03T16:02:57.278Z,82.82
2024-02-03T16:05:25.059Z,82.32
2024-02-03T16:07:53.064Z,83.75
2024-02-03T16:10:21.238Z,83.30
2024-02-03T16:12:49.121Z,86.68
2024-02-03T16:15:17.038Z,87.47
2024-02-03T16:17:44.845Z,106.25
2024-02-03T16:20:15.912Z,93.70
2024-02-03T16:22:46.124Z,98.40
2024-02-03T16:25:14.186Z,94.68
2024-02-03T16:27:44.717Z,93.25
2024-02-03T16:30:16.812Z,82.55
2024-02-03T16:32:45.537Z,92.55
2024-02-03T16:37:41.597Z,95.45
2024-02-03T16:40:10.118Z,100.85
2024-02-03T16:42:37.975Z,127.00
2024-02-03T16:45:06.198Z,100.55
2024-02-03T16:47:34.156Z,95.07
2024-02-03T16:50:01.659Z,103.15
2024-02-03T16:52:30.798Z,94.60
2024-02-03T16:54:58.819Z,89.40
2024-02-03T16:57:28.318Z,102.78
2024-02-03T16:59:56.723Z,112.28
2024-02-03T17:02:26.732Z,114.18
2024-02-03T17:04:54.627Z,93.78
2024-02-03T17:07:22.289Z,110.25
2024-02-03T17:09:50.930Z,98.68
2024-02-03T17:12:18.626Z,88.93
2024-02-03T17:14:46.148Z,96.38
2024-02-03T17:17:13.533Z,79.05
2024-02-03T17:19:41.414Z,92.72
2024-02-03T17:22:09.478Z,88.28
2024-02-03T17:24:37.154Z,82.93
2024-02-03T17:27:04.915Z,80.72
2024-02-03T17:29:32.803Z,79.28
2024-02-03T17:32:00.712Z,79.07
2024-02-03T17:34:29.306Z,79.80
2024-02-03T17:36:57.135Z,70.18
2024-02-03T17:39:25.257Z,80.78
2024-02-03T17:41:53.070Z,85.75
2024-02-03T17:44:20.991Z,89.70
2024-02-03T17:46:48.593Z,76.25
2024-02-03T17:49:16.394Z,85.55
2024-02-03T17:51:44.482Z,86.00
2024-02-03T17:54:12.280Z,86.22
2024-02-03T17:56:41.290Z,83.85
2024-02-03T17:59:10.092Z,75.93
2024-02-03T18:01:37.719Z,81.65
2024-02-03T18:04:05.337Z,99.93
2024-02-03T18:06:33.564Z,89.00
2024-02-03T18:09:01.549Z,84.55
2024-02-03T18:11:30.483Z,94.75
2024-02-03T18:13:59.114Z,95.03
2024-02-03T18:16:27.108Z,87.85
2024-02-03T18:18:54.593Z,101.00
2024-02-03T18:21:22.434Z,98.07
2024-02-03T18:23:50.205Z,96.45
2024-02-03T18:26:17.978Z,88.15
2024-02-03T18:28:46.160Z,93.07
2024-02-03T18:31:14.063Z,102.55
2024-02-03T18:33:44.088Z,110.35
2024-02-03T18:36:12.204Z,117.82
2024-02-03T18:41:07.377Z,116.55
2024-02-03T18:43:35.013Z,108.05
2024-02-03T18:46:03.190Z,99.65
2024-02-03T18:48:30.826Z,90.78
2024-02-03T18:50:58.736Z,96.50
2024-02-03T18:53:30.341Z,91.15
2024-02-03T18:55:58.106Z,73.78
2024-02-03T18:58:28.220Z,83.50
2024-02-03T19:00:57.394Z,82.88
2024-02-03T19:03:25.812Z,85.35
2024-02-03T19:08:20.762Z,83.68
2024-02-03T19:10:49.354Z,92.97
2024-02-03T19:15:45.872Z,77.25
2024-02-03T19:18:13.708Z,85.03
2024-02-03T19:20:41.607Z,85.15
2024-02-03T19:23:09.932Z,82.55
2024-02-03T19:25:38.087Z,67.85
2024-02-03T19:28:05.756Z,76.53
2024-02-03T19:30:33.709Z,91.70
2024-02-03T19:33:02.117Z,69.35
2024-02-03T19:35:29.719Z,64.47
2024-02-03T19:38:02.130Z,72.07
2024-02-03T19:40:29.706Z,74.03
2024-02-03T19:42:57.335Z,81.18
2024-02-03T19:45:25.088Z,80.47
2024-02-03T19:47:52.914Z,76.50
2024-02-03T19:50:22.414Z,81.45
2024-02-03T19:52:51.838Z,76.68
2024-02-03T19:55:20.505Z,66.28
2024-02-03T19:57:49.021Z,73.05
2024-02-03T20:00:17.832Z,72.20
2024-02-03T20:02:45.589Z,78.93
2024-02-03T20:05:14.102Z,69.22
2024-02-03T20:07:42.339Z,76.65
2024-02-03T20:10:10.963Z,84.95
2024-02-03T20:12:40.565Z,79.10
2024-02-03T20:15:08.898Z,76.45
2024-02-03T20:17:38.249Z,79.32
2024-02-03T20:20:06.820Z,82.18
2024-02-03T20:22:34.768Z,81.30
2024-02-03T20:25:02.958Z,88.63
2024-02-03T20:27:30.742Z,87.38
2024-02-03T20:29:58.208Z,93.10
2024-02-03T20:32:26.177Z,92.25
2024-02-03T20:34:53.833Z,69.15
2024-02-03T20:37:21.789Z,99.13
2024-02-03T20:42:19.407Z,69.40
2024-02-03T20:44:47.014Z,91.63
2024-02-03T20:47:14.895Z,81.57
2024-02-03T20:49:42.586Z,86.05
2024-02-03T20:52:10.826Z,89.40
2024-02-03T20:54:38.888Z,79.10
2024-02-03T20:57:06.672Z,89.15
2024-02-03T20:59:34.578Z,94.22
2024-02-03T21:02:02.619Z,91.20
2024-02-03T21:04:30.521Z,79.97
2024-02-03T21:06:59.618Z,76.63
2024-02-03T21:09:28.003Z,88.53
2024-02-03T21:11:55.891Z,84.28
2024-02-03T21:14:24.089Z,82.95
2024-02-03T21:16:52.277Z,82.00
2024-02-03T21:21:47.855Z,79.70
2024-02-03T21:24:16.222Z,79.60
2024-02-03T21:26:50.756Z,78.60
2024-02-03T21:29:18.457Z,88.05
2024-02-03T21:31:46.017Z,86.20
2024-02-03T21:34:13.698Z,85.80
2024-02-03T21:36:41.458Z,81.28
2024-02-03T21:39:11.892Z,83.82
2024-02-03T21:41:40.491Z,82.95
2024-02-03T21:44:08.579Z,77.65
2024-02-03T21:46:36.384Z,89.30
2024-02-03T21:49:04.448Z,87.07
2024-02-03T21:51:32.124Z,84.22
2024-02-03T21:54:00.082Z,86.80
2024-02-03T21:56:27.678Z,88.95
2024-02-03T21:58:55.319Z,86.50
2024-02-03T22:01:23.592Z,95.07
2024-02-03T22:03:54.018Z,84.10
2024-02-03T22:06:25.720Z,93.65
2024-02-03T22:08:53.532Z,91.85
2024-02-03T22:11:21.362Z,88.00
2024-02-03T22:13:48.910Z,82.72
2024-02-03T22:16:16.243Z,87.90
2024-02-03T22:18:43.969Z,88.22
2024-02-03T22:21:11.943Z,92.05
2024-02-03T22:23:40.005Z,78.78
2024-02-03T22:28:35.141Z,67.43
2024-02-03T22:31:03.266Z,75.25
2024-02-03T22:33:31.391Z,79.95
2024-02-03T22:35:58.989Z,78.78
2024-02-03T22:38:27.022Z,71.90
2024-02-03T22:40:54.959Z,78.93
2024-02-03T22:43:22.416Z,73.47
2024-02-03T22:45:50.334Z,80.57
2024-02-03T22:48:18.578Z,80.90
2024-02-03T22:50:46.285Z,76.57
2024-02-03T22:53:13.967Z,70.95
2024-02-03T22:55:41.608Z,74.70
2024-02-03T22:58:09.388Z,82.40
2024-02-03T23:00:37.737Z,74.30
2024-02-03T23:03:06.975Z,74.75
2024-02-03T23:05:34.716Z,73.85
2024-02-03T23:08:02.490Z,74.88
2024-02-03T23:10:30.234Z,78.10
2024-02-03T23:12:58.102Z,79.80
2024-02-03T23:15:25.874Z,79.80
2024-02-03T23:17:54.655Z,72.63
2024-02-03T23:20:23.919Z,67.75
2024-02-03T23:22:51.537Z,75.10
2024-02-03T23:25:19.354Z,88.07
2024-02-03T23:27:46.962Z,81.35
2024-02-03T23:30:14.700Z,86.15
2024-02-03T23:32:42.637Z,92.75
2024-02-03T23:35:10.746Z,83.43
2024-02-03T23:37:38.410Z,84.72
2024-02-03T23:40:08.406Z,106.00
2024-02-03T23:42:36.428Z,95.57
2024-02-03T23:45:04.762Z,105.85
2024-02-03T23:47:33.283Z,105.95
2024-02-03T23:52:28.604Z,86.25
2024-02-03T23:54:56.272Z,94.10
2024-02-03T23:57:24.074Z,91.97
2024-02-03T23:59:51.890Z,91.75
